KGXY

Greeley-Weld County Airport

Greeley, Colorado, USA
METAR KGXY 201856Z 17006KT 10SM CLR 19/M02 A3038 RMK AO2 SLP287 T01941022
Observed Flight Rules
Oct-20 @ 18:56 UTC (an hour ago) Visual Flight Rules
Wind Visibility Clouds
170° at 6 knots 10 miles
  • Clear skies
Temperatures Readings
Current 19°C / 66°F
Dewpoint -2°C / 28°F
Humidity 24%
Altimeter 30.38" Hg
Pressure 1028.7 hPa
Elevation 1420
METAR KGXY 201856Z 17006KT 10SM CLR 19/M02 A3038 RMK AO2 SLP287 T01941022
Observed Flight Rules
Oct-20 @ 18:56 UTC
(an hour ago)
VFR
Wind Visibility
170° at 6 knots 10 miles
Clouds
  • Clear skies
Temperature Dewpoint
19°C / 66°F -2°C / 28°F
Humidity Altimeter Pressure
24% 30.38" Hg 1028.7 hPa